sensor_id;sensor_type;location;lat;lon;timestamp;pressure;altitude;pressure_sealevel;temperature;humidity
804;BME280;25687;49.976;8.240;2023-07-02T00:02:16;99394.28;;;16.82;100.00
804;BME280;25687;49.976;8.240;2023-07-02T00:04:42;99396.31;;;16.88;100.00
804;BME280;25687;49.976;8.240;2023-07-02T00:07:08;99387.34;;;16.72;100.00
804;BME280;25687;49.976;8.240;2023-07-02T00:09:33;99383.94;;;16.62;100.00
804;BME280;25687;49.976;8.240;2023-07-02T00:11:58;99402.44;;;16.49;100.00
804;BME280;25687;49.976;8.240;2023-07-02T00:14:24;99396.28;;;16.40;100.00
804;BME280;25687;49.976;8.240;2023-07-02T00:16:49;99403.53;;;16.27;100.00
804;BME280;25687;49.976;8.240;2023-07-02T00:19:15;99401.78;;;16.27;100.00
804;BME280;25687;49.976;8.240;2023-07-02T00:21:41;99398.09;;;16.20;100.00
804;BME280;25687;49.976;8.240;2023-07-02T00:24:07;99396.84;;;16.14;100.00
804;BME280;25687;49.976;8.240;2023-07-02T00:26:35;99396.84;;;16.05;100.00
804;BME280;25687;49.976;8.240;2023-07-02T00:29:00;99394.13;;;15.87;100.00
804;BME280;25687;49.976;8.240;2023-07-02T00:31:26;99390.41;;;15.79;100.00
804;BME280;25687;49.976;8.240;2023-07-02T00:33:51;99388.88;;;15.67;100.00
804;BME280;25687;49.976;8.240;2023-07-02T00:36:16;99385.72;;;15.54;100.00
804;BME280;25687;49.976;8.240;2023-07-02T00:38:43;99378.84;;;15.43;100.00
804;BME280;25687;49.976;8.240;2023-07-02T00:41:10;99390.84;;;15.34;100.00
804;BME280;25687;49.976;8.240;2023-07-02T00:43:35;99386.06;;;15.29;100.00
804;BME280;25687;49.976;8.240;2023-07-02T00:46:01;99393.41;;;15.24;100.00
804;BME280;25687;49.976;8.240;2023-07-02T00:48:28;99395.28;;;15.12;100.00
804;BME280;25687;49.976;8.240;2023-07-02T00:50:53;99394.16;;;15.05;100.00
804;BME280;25687;49.976;8.240;2023-07-02T00:53:18;99394.50;;;14.91;100.00
804;BME280;25687;49.976;8.240;2023-07-02T00:55:44;99393.13;;;14.87;100.00
804;BME280;25687;49.976;8.240;2023-07-02T00:58:09;99396.50;;;14.87;100.00
804;BME280;25687;49.976;8.240;2023-07-02T01:00:34;99392.41;;;14.84;100.00
804;BME280;25687;49.976;8.240;2023-07-02T01:03:00;99400.31;;;14.83;100.00
804;BME280;25687;49.976;8.240;2023-07-02T01:05:26;99409.97;;;14.81;100.00
804;BME280;25687;49.976;8.240;2023-07-02T01:08:02;99410.03;;;14.69;100.00
804;BME280;25687;49.976;8.240;2023-07-02T01:10:27;99402.84;;;14.73;100.00
804;BME280;25687;49.976;8.240;2023-07-02T01:12:53;99411.44;;;14.74;100.00
804;BME280;25687;49.976;8.240;2023-07-02T01:15:19;99409.94;;;14.71;100.00
804;BME280;25687;49.976;8.240;2023-07-02T01:17:45;99415.78;;;14.73;100.00
804;BME280;25687;49.976;8.240;2023-07-02T01:20:12;99413.09;;;14.63;100.00
804;BME280;25687;49.976;8.240;2023-07-02T01:22:38;99408.53;;;14.67;100.00
804;BME280;25687;49.976;8.240;2023-07-02T01:25:04;99409.94;;;14.60;100.00
804;BME280;25687;49.976;8.240;2023-07-02T01:27:30;99407.63;;;14.57;100.00
804;BME280;25687;49.976;8.240;2023-07-02T01:29:56;99415.03;;;14.61;100.00
804;BME280;25687;49.976;8.240;2023-07-02T01:32:22;99417.03;;;14.58;100.00
804;BME280;25687;49.976;8.240;2023-07-02T01:34:48;99413.63;;;14.57;100.00
804;BME280;25687;49.976;8.240;2023-07-02T01:37:17;99414.81;;;14.53;100.00
804;BME280;25687;49.976;8.240;2023-07-02T01:39:43;99410.28;;;14.45;100.00
804;BME280;25687;49.976;8.240;2023-07-02T01:42:10;99404.91;;;14.37;100.00
804;BME280;25687;49.976;8.240;2023-07-02T01:44:37;99402.25;;;14.27;100.00
804;BME280;25687;49.976;8.240;2023-07-02T01:47:03;99406.75;;;14.14;100.00
804;BME280;25687;49.976;8.240;2023-07-02T01:49:28;99404.66;;;14.19;100.00
804;BME280;25687;49.976;8.240;2023-07-02T01:51:55;99414.78;;;14.11;100.00
804;BME280;25687;49.976;8.240;2023-07-02T01:54:23;99424.41;;;14.09;100.00
804;BME280;25687;49.976;8.240;2023-07-02T01:56:49;99425.84;;;14.13;100.00
804;BME280;25687;49.976;8.240;2023-07-02T01:59:15;99427.94;;;14.08;100.00
804;BME280;25687;49.976;8.240;2023-07-02T02:01:40;99423.94;;;14.15;100.00
804;BME280;25687;49.976;8.240;2023-07-02T02:04:07;99425.63;;;14.04;100.00
804;BME280;25687;49.976;8.240;2023-07-02T02:06:32;99418.47;;;13.97;100.00
804;BME280;25687;49.976;8.240;2023-07-02T02:08:58;99416.97;;;13.94;100.00
804;BME280;25687;49.976;8.240;2023-07-02T02:11:23;99413.97;;;13.99;100.00
804;BME280;25687;49.976;8.240;2023-07-02T02:13:49;99421.56;;;13.91;100.00
804;BME280;25687;49.976;8.240;2023-07-02T02:16:14;99423.16;;;13.92;100.00
804;BME280;25687;49.976;8.240;2023-07-02T02:18:39;99423.44;;;13.88;100.00
804;BME280;25687;49.976;8.240;2023-07-02T02:21:05;99419.91;;;13.90;100.00
804;BME280;25687;49.976;8.240;2023-07-02T02:23:30;99423.56;;;13.87;100.00
804;BME280;25687;49.976;8.240;2023-07-02T02:25:55;99423.19;;;13.80;100.00
804;BME280;25687;49.976;8.240;2023-07-02T02:28:21;99417.22;;;13.80;100.00
804;BME280;25687;49.976;8.240;2023-07-02T02:30:46;99417.34;;;13.78;100.00
804;BME280;25687;49.976;8.240;2023-07-02T02:33:11;99422.38;;;13.80;100.00
804;BME280;25687;49.976;8.240;2023-07-02T02:35:36;99420.16;;;13.75;100.00
804;BME280;25687;49.976;8.240;2023-07-02T02:38:03;99424.75;;;13.71;100.00
804;BME280;25687;49.976;8.240;2023-07-02T02:40:29;99431.91;;;13.79;100.00
804;BME280;25687;49.976;8.240;2023-07-02T02:42:54;99436.13;;;13.80;100.00
804;BME280;25687;49.976;8.240;2023-07-02T02:45:19;99440.00;;;13.86;100.00
804;BME280;25687;49.976;8.240;2023-07-02T02:47:47;99440.94;;;13.85;100.00
804;BME280;25687;49.976;8.240;2023-07-02T02:50:13;99435.63;;;13.86;100.00
804;BME280;25687;49.976;8.240;2023-07-02T02:52:39;99438.13;;;13.77;100.00
804;BME280;25687;49.976;8.240;2023-07-02T02:55:06;99435.53;;;13.77;100.00
804;BME280;25687;49.976;8.240;2023-07-02T02:57:32;99437.31;;;13.76;100.00
804;BME280;25687;49.976;8.240;2023-07-02T02:59:57;99441.88;;;13.84;100.00
804;BME280;25687;49.976;8.240;2023-07-02T03:02:23;99435.06;;;13.83;100.00
804;BME280;25687;49.976;8.240;2023-07-02T03:04:48;99434.38;;;13.81;100.00
804;BME280;25687;49.976;8.240;2023-07-02T03:07:14;99439.69;;;13.79;100.00
804;BME280;25687;49.976;8.240;2023-07-02T03:09:40;99439.53;;;13.81;100.00
804;BME280;25687;49.976;8.240;2023-07-02T03:12:05;99432.97;;;13.77;100.00
804;BME280;25687;49.976;8.240;2023-07-02T03:14:31;99436.03;;;13.82;100.00
804;BME280;25687;49.976;8.240;2023-07-02T03:16:56;99437.66;;;13.83;100.00
804;BME280;25687;49.976;8.240;2023-07-02T03:19:22;99437.66;;;13.83;100.00
804;BME280;25687;49.976;8.240;2023-07-02T03:21:47;99440.84;;;13.75;100.00
804;BME280;25687;49.976;8.240;2023-07-02T03:24:12;99442.63;;;13.75;100.00
804;BME280;25687;49.976;8.240;2023-07-02T03:26:39;99440.84;;;13.75;100.00
804;BME280;25687;49.976;8.240;2023-07-02T03:29:04;99440.63;;;13.78;100.00
804;BME280;25687;49.976;8.240;2023-07-02T03:31:29;99439.78;;;13.78;100.00
804;BME280;25687;49.976;8.240;2023-07-02T03:33:55;99439.88;;;13.87;100.00
804;BME280;25687;49.976;8.240;2023-07-02T03:36:20;99443.66;;;13.83;100.00
804;BME280;25687;49.976;8.240;2023-07-02T03:38:45;99445.03;;;13.87;100.00
804;BME280;25687;49.976;8.240;2023-07-02T03:41:10;99451.03;;;13.99;100.00
804;BME280;25687;49.976;8.240;2023-07-02T03:43:36;99444.78;;;14.02;100.00
804;BME280;25687;49.976;8.240;2023-07-02T03:46:01;99450.28;;;14.09;100.00
804;BME280;25687;49.976;8.240;2023-07-02T03:48:26;99447.78;;;14.18;100.00
804;BME280;25687;49.976;8.240;2023-07-02T03:50:51;99456.69;;;14.26;100.00
804;BME280;25687;49.976;8.240;2023-07-02T03:53:17;99454.47;;;14.21;100.00
804;BME280;25687;49.976;8.240;2023-07-02T03:55:42;99454.31;;;14.34;100.00
804;BME280;25687;49.976;8.240;2023-07-02T03:58:07;99462.25;;;14.42;100.00
804;BME280;25687;49.976;8.240;2023-07-02T04:00:32;99462.91;;;14.56;100.00
804;BME280;25687;49.976;8.240;2023-07-02T04:02:58;99461.97;;;14.57;100.00
804;BME280;25687;49.976;8.240;2023-07-02T04:05:23;99458.88;;;14.63;100.00
804;BME280;25687;49.976;8.240;2023-07-02T04:07:48;99464.31;;;14.60;100.00
804;BME280;25687;49.976;8.240;2023-07-02T04:10:14;99465.25;;;14.70;100.00
804;BME280;25687;49.976;8.240;2023-07-02T04:12:39;99472.25;;;14.79;100.00
804;BME280;25687;49.976;8.240;2023-07-02T04:15:05;99471.22;;;14.92;100.00
804;BME280;25687;49.976;8.240;2023-07-02T04:17:30;99477.16;;;15.04;100.00
804;BME280;25687;49.976;8.240;2023-07-02T04:19:57;99483.16;;;15.04;100.00
804;BME280;25687;49.976;8.240;2023-07-02T04:22:22;99483.53;;;14.99;100.00
804;BME280;25687;49.976;8.240;2023-07-02T04:24:48;99482.16;;;14.95;100.00
804;BME280;25687;49.976;8.240;2023-07-02T04:27:17;99493.09;;;14.99;100.00
804;BME280;25687;49.976;8.240;2023-07-02T04:29:43;99490.88;;;14.94;100.00
804;BME280;25687;49.976;8.240;2023-07-02T04:32:09;99488.09;;;15.07;100.00
804;BME280;25687;49.976;8.240;2023-07-02T04:34:34;99494.88;;;14.98;100.00
804;BME280;25687;49.976;8.240;2023-07-02T04:37:01;99501.56;;;15.01;100.00
804;BME280;25687;49.976;8.240;2023-07-02T04:39:27;99493.72;;;14.91;100.00
804;BME280;25687;49.976;8.240;2023-07-02T04:41:52;99501.56;;;15.01;100.00
804;BME280;25687;49.976;8.240;2023-07-02T04:44:17;99498.88;;;15.12;100.00
804;BME280;25687;49.976;8.240;2023-07-02T04:46:43;99494.94;;;15.18;100.00
804;BME280;25687;49.976;8.240;2023-07-02T04:49:08;99495.38;;;14.92;100.00
804;BME280;25687;49.976;8.240;2023-07-02T04:51:33;99497.31;;;15.00;100.00
804;BME280;25687;49.976;8.240;2023-07-02T04:53:58;99502.84;;;15.16;100.00
804;BME280;25687;49.976;8.240;2023-07-02T04:56:24;99507.03;;;15.08;100.00
804;BME280;25687;49.976;8.240;2023-07-02T04:58:49;99507.72;;;15.31;100.00
804;BME280;25687;49.976;8.240;2023-07-02T05:01:14;99505.00;;;15.32;100.00
804;BME280;25687;49.976;8.240;2023-07-02T05:03:39;99507.75;;;15.41;100.00
804;BME280;25687;49.976;8.240;2023-07-02T05:06:05;99500.09;;;15.39;100.00
804;BME280;25687;49.976;8.240;2023-07-02T05:08:30;99498.13;;;15.53;100.00
804;BME280;25687;49.976;8.240;2023-07-02T05:10:55;99499.97;;;15.72;100.00
804;BME280;25687;49.976;8.240;2023-07-02T05:13:20;99501.13;;;15.89;100.00
804;BME280;25687;49.976;8.240;2023-07-02T05:15:46;99501.50;;;16.25;100.00
804;BME280;25687;49.976;8.240;2023-07-02T05:18:11;99504.38;;;16.51;100.00
804;BME280;25687;49.976;8.240;2023-07-02T05:20:37;99511.72;;;16.75;100.00
804;BME280;25687;49.976;8.240;2023-07-02T05:23:02;99511.47;;;16.98;100.00
804;BME280;25687;49.976;8.240;2023-07-02T05:25:27;99512.59;;;17.33;100.00
804;BME280;25687;49.976;8.240;2023-07-02T05:27:53;99519.78;;;17.59;100.00
804;BME280;25687;49.976;8.240;2023-07-02T05:30:18;99518.09;;;17.96;100.00
804;BME280;25687;49.976;8.240;2023-07-02T05:32:43;99515.88;;;18.01;100.00
804;BME280;25687;49.976;8.240;2023-07-02T05:35:08;99522.88;;;18.00;100.00
804;BME280;25687;49.976;8.240;2023-07-02T05:37:34;99532.84;;;18.05;100.00
804;BME280;25687;49.976;8.240;2023-07-02T05:39:59;99522.63;;;17.94;100.00
804;BME280;25687;49.976;8.240;2023-07-02T05:42:24;99522.78;;;17.82;100.00
804;BME280;25687;49.976;8.240;2023-07-02T05:44:50;99530.91;;;18.07;100.00
804;BME280;25687;49.976;8.240;2023-07-02T05:47:15;99526.66;;;18.52;100.00
804;BME280;25687;49.976;8.240;2023-07-02T05:49:42;99538.06;;;18.77;100.00
804;BME280;25687;49.976;8.240;2023-07-02T05:52:07;99532.88;;;18.77;100.00
804;BME280;25687;49.976;8.240;2023-07-02T05:54:33;99540.44;;;18.88;100.00
804;BME280;25687;49.976;8.240;2023-07-02T05:56:58;99535.69;;;19.02;100.00
804;BME280;25687;49.976;8.240;2023-07-02T05:59:23;99538.13;;;19.03;100.00
804;BME280;25687;49.976;8.240;2023-07-02T06:01:48;99539.47;;;18.90;100.00
804;BME280;25687;49.976;8.240;2023-07-02T06:04:14;99544.16;;;18.86;100.00
804;BME280;25687;49.976;8.240;2023-07-02T06:06:39;99549.78;;;18.73;100.00
804;BME280;25687;49.976;8.240;2023-07-02T06:09:04;99549.25;;;18.51;100.00
804;BME280;25687;49.976;8.240;2023-07-02T06:11:30;99549.25;;;18.33;100.00
804;BME280;25687;49.976;8.240;2023-07-02T06:13:55;99552.25;;;18.11;100.00
804;BME280;25687;49.976;8.240;2023-07-02T06:16:20;99553.94;;;18.30;100.00
804;BME280;25687;49.976;8.240;2023-07-02T06:18:46;99558.69;;;18.34;100.00
804;BME280;25687;49.976;8.240;2023-07-02T06:21:11;99555.41;;;18.32;100.00
804;BME280;25687;49.976;8.240;2023-07-02T06:23:43;99565.25;;;18.38;100.00
804;BME280;25687;49.976;8.240;2023-07-02T06:26:08;99559.94;;;18.30;100.00
804;BME280;25687;49.976;8.240;2023-07-02T06:28:34;99560.06;;;18.11;100.00
804;BME280;25687;49.976;8.240;2023-07-02T06:30:59;99561.31;;;18.52;100.00
804;BME280;25687;49.976;8.240;2023-07-02T06:33:24;99566.31;;;19.52;100.00
804;BME280;25687;49.976;8.240;2023-07-02T06:35:49;99564.13;;;19.74;100.00
804;BME280;25687;49.976;8.240;2023-07-02T06:38:15;99573.72;;;19.39;100.00
804;BME280;25687;49.976;8.240;2023-07-02T06:40:40;99569.84;;;18.99;100.00
804;BME280;25687;49.976;8.240;2023-07-02T06:43:05;99570.34;;;18.94;100.00
804;BME280;25687;49.976;8.240;2023-07-02T06:45:30;99565.91;;;19.13;100.00
804;BME280;25687;49.976;8.240;2023-07-02T06:47:56;99565.34;;;19.88;100.00
804;BME280;25687;49.976;8.240;2023-07-02T06:50:21;99561.94;;;21.21;91.73
804;BME280;25687;49.976;8.240;2023-07-02T06:52:47;99562.00;;;22.09;86.32
804;BME280;25687;49.976;8.240;2023-07-02T06:55:13;99566.53;;;22.15;83.85
804;BME280;25687;49.976;8.240;2023-07-02T06:57:44;99570.88;;;22.00;84.42
804;BME280;25687;49.976;8.240;2023-07-02T07:00:14;99572.31;;;23.27;73.82
804;BME280;25687;49.976;8.240;2023-07-02T07:02:39;99566.31;;;25.23;63.10
804;BME280;25687;49.976;8.240;2023-07-02T07:05:05;99576.19;;;26.46;52.46
804;BME280;25687;49.976;8.240;2023-07-02T07:07:31;99573.56;;;26.66;49.31
804;BME280;25687;49.976;8.240;2023-07-02T07:09:57;99584.34;;;27.05;49.50
804;BME280;25687;49.976;8.240;2023-07-02T07:12:22;99590.72;;;28.28;44.83
804;BME280;25687;49.976;8.240;2023-07-02T07:14:47;99594.69;;;27.27;46.62
804;BME280;25687;49.976;8.240;2023-07-02T07:17:12;99588.31;;;26.20;51.85
804;BME280;25687;49.976;8.240;2023-07-02T07:19:38;99591.81;;;25.86;53.31
804;BME280;25687;49.976;8.240;2023-07-02T07:22:03;99592.22;;;25.83;52.41
804;BME280;25687;49.976;8.240;2023-07-02T07:24:28;99599.97;;;26.04;51.50
804;BME280;25687;49.976;8.240;2023-07-02T07:26:54;99590.38;;;26.52;49.83
804;BME280;25687;49.976;8.240;2023-07-02T07:29:19;99597.94;;;27.09;46.23
804;BME280;25687;49.976;8.240;2023-07-02T07:31:45;99600.75;;;26.60;47.31
804;BME280;25687;49.976;8.240;2023-07-02T07:34:11;99603.69;;;25.68;52.28
804;BME280;25687;49.976;8.240;2023-07-02T07:36:37;99597.25;;;26.26;51.56
804;BME280;25687;49.976;8.240;2023-07-02T07:39:02;99600.22;;;26.09;49.73
804;BME280;25687;49.976;8.240;2023-07-02T07:41:27;99602.53;;;25.84;52.31
804;BME280;25687;49.976;8.240;2023-07-02T07:43:53;99592.66;;;24.94;58.29
804;BME280;25687;49.976;8.240;2023-07-02T07:46:18;99597.56;;;24.76;59.92
804;BME280;25687;49.976;8.240;2023-07-02T07:48:44;99597.84;;;26.21;54.36
804;BME280;25687;49.976;8.240;2023-07-02T07:51:09;99596.94;;;28.41;44.69
804;BME280;25687;49.976;8.240;2023-07-02T07:53:37;99599.66;;;28.27;43.41
804;BME280;25687;49.976;8.240;2023-07-02T07:56:03;99603.72;;;29.38;42.07
804;BME280;25687;49.976;8.240;2023-07-02T07:58:28;99601.91;;;30.67;38.53
804;BME280;25687;49.976;8.240;2023-07-02T08:00:54;99601.66;;;31.75;34.73
804;BME280;25687;49.976;8.240;2023-07-02T08:03:19;99611.56;;;32.83;33.25
804;BME280;25687;49.976;8.240;2023-07-02T08:05:44;99612.19;;;32.57;33.11
804;BME280;25687;49.976;8.240;2023-07-02T08:08:09;99606.94;;;32.62;33.48
804;BME280;25687;49.976;8.240;2023-07-02T08:10:35;99605.72;;;30.59;34.55
804;BME280;25687;49.976;8.240;2023-07-02T08:13:00;99612.19;;;30.02;35.88
804;BME280;25687;49.976;8.240;2023-07-02T08:15:25;99606.41;;;28.23;40.45
804;BME280;25687;49.976;8.240;2023-07-02T08:17:51;99597.53;;;27.32;43.28
804;BME280;25687;49.976;8.240;2023-07-02T08:20:19;99590.44;;;26.03;47.45
804;BME280;25687;49.976;8.240;2023-07-02T08:22:45;99592.13;;;25.06;53.83
804;BME280;25687;49.976;8.240;2023-07-02T08:25:10;99595.28;;;24.14;59.64
804;BME280;25687;49.976;8.240;2023-07-02T08:27:35;99599.06;;;24.27;64.07
804;BME280;25687;49.976;8.240;2023-07-02T08:30:00;99589.38;;;24.92;56.51
804;BME280;25687;49.976;8.240;2023-07-02T08:32:26;99596.78;;;26.09;51.71
804;BME280;25687;49.976;8.240;2023-07-02T08:34:51;99603.81;;;25.32;54.82
804;BME280;25687;49.976;8.240;2023-07-02T08:37:20;99601.72;;;24.12;56.26
804;BME280;25687;49.976;8.240;2023-07-02T08:39:46;99605.88;;;24.06;63.24
804;BME280;25687;49.976;8.240;2023-07-02T08:42:11;99608.06;;;23.88;64.80
804;BME280;25687;49.976;8.240;2023-07-02T08:44:37;99601.78;;;24.18;64.12
804;BME280;25687;49.976;8.240;2023-07-02T08:47:02;99596.84;;;24.67;60.77
804;BME280;25687;49.976;8.240;2023-07-02T08:49:28;99599.03;;;24.63;58.47
804;BME280;25687;49.976;8.240;2023-07-02T08:51:53;99605.56;;;25.18;53.50
804;BME280;25687;49.976;8.240;2023-07-02T08:54:19;99609.38;;;24.87;55.35
804;BME280;25687;49.976;8.240;2023-07-02T08:56:46;99610.47;;;24.56;58.79
804;BME280;25687;49.976;8.240;2023-07-02T08:59:12;99613.94;;;23.30;64.74
804;BME280;25687;49.976;8.240;2023-07-02T09:01:51;99618.56;;;22.81;71.95
804;BME280;25687;49.976;8.240;2023-07-02T09:04:21;99619.50;;;22.65;74.86
804;BME280;25687;49.976;8.240;2023-07-02T09:06:48;99616.94;;;22.80;70.34
804;BME280;25687;49.976;8.240;2023-07-02T09:09:14;99616.34;;;23.16;59.67
804;BME280;25687;49.976;8.240;2023-07-02T09:11:51;99618.03;;;25.59;49.00
804;BME280;25687;49.976;8.240;2023-07-02T09:14:29;99617.22;;;27.29;42.18
804;BME280;25687;49.976;8.240;2023-07-02T09:17:06;99629.28;;;29.25;37.96
804;BME280;25687;49.976;8.240;2023-07-02T09:19:32;99631.31;;;27.95;40.62
804;BME280;25687;49.976;8.240;2023-07-02T09:21:58;99636.47;;;28.61;39.47
804;BME280;25687;49.976;8.240;2023-07-02T09:24:28;99632.84;;;29.12;36.65
804;BME280;25687;49.976;8.240;2023-07-02T09:26:56;99640.34;;;29.41;35.52
804;BME280;25687;49.976;8.240;2023-07-02T09:29:30;99645.56;;;28.40;37.47
804;BME280;25687;49.976;8.240;2023-07-02T09:32:00;99640.72;;;26.70;40.94
804;BME280;25687;49.976;8.240;2023-07-02T09:34:37;99640.13;;;26.68;42.50
804;BME280;25687;49.976;8.240;2023-07-02T09:37:04;99635.69;;;26.07;44.08
804;BME280;25687;49.976;8.240;2023-07-02T09:39:34;99642.47;;;25.24;46.01
804;BME280;25687;49.976;8.240;2023-07-02T09:42:02;99649.28;;;24.54;50.02
804;BME280;25687;49.976;8.240;2023-07-02T09:44:31;99648.94;;;23.22;56.13
804;BME280;25687;49.976;8.240;2023-07-02T09:47:07;99658.00;;;22.88;58.53
804;BME280;25687;49.976;8.240;2023-07-02T09:49:34;99657.31;;;22.94;58.42
804;BME280;25687;49.976;8.240;2023-07-02T09:52:07;99644.31;;;23.24;55.26
804;BME280;25687;49.976;8.240;2023-07-02T09:54:33;99642.50;;;25.53;47.51
804;BME280;25687;49.976;8.240;2023-07-02T09:56:59;99636.31;;;26.91;41.18
804;BME280;25687;49.976;8.240;2023-07-02T09:59:24;99641.19;;;28.20;38.75
804;BME280;25687;49.976;8.240;2023-07-02T10:01:50;99646.19;;;29.87;34.82
804;BME280;25687;49.976;8.240;2023-07-02T10:04:18;99650.72;;;30.35;34.09
804;BME280;25687;49.976;8.240;2023-07-02T10:06:48;99652.47;;;30.11;33.59
804;BME280;25687;49.976;8.240;2023-07-02T10:09:14;99659.94;;;29.77;33.70
804;BME280;25687;49.976;8.240;2023-07-02T10:11:40;99649.13;;;30.77;31.68
804;BME280;25687;49.976;8.240;2023-07-02T10:14:05;99646.47;;;31.83;30.17
804;BME280;25687;49.976;8.240;2023-07-02T10:16:31;99642.94;;;32.07;30.17
804;BME280;25687;49.976;8.240;2023-07-02T10:19:12;99648.69;;;29.82;30.88
804;BME280;25687;49.976;8.240;2023-07-02T10:21:37;99644.50;;;30.72;31.08
804;BME280;25687;49.976;8.240;2023-07-02T10:24:16;99648.28;;;30.64;30.25
804;BME280;25687;49.976;8.240;2023-07-02T10:26:58;99647.59;;;28.76;32.48
804;BME280;25687;49.976;8.240;2023-07-02T10:29:25;99635.50;;;26.97;35.37
804;BME280;25687;49.976;8.240;2023-07-02T10:31:52;99643.75;;;25.99;38.33
804;BME280;25687;49.976;8.240;2023-07-02T10:34:34;99636.38;;;26.22;37.12
804;BME280;25687;49.976;8.240;2023-07-02T10:37:01;99633.69;;;26.16;38.25
804;BME280;25687;49.976;8.240;2023-07-02T10:39:27;99639.28;;;25.92;39.56
804;BME280;25687;49.976;8.240;2023-07-02T10:42:03;99640.88;;;25.52;38.54
804;BME280;25687;49.976;8.240;2023-07-02T10:44:28;99638.13;;;25.17;37.98
804;BME280;25687;49.976;8.240;2023-07-02T10:46:54;99629.94;;;26.52;36.66
804;BME280;25687;49.976;8.240;2023-07-02T10:49:20;99639.94;;;27.57;35.38
804;BME280;25687;49.976;8.240;2023-07-02T10:52:01;99654.63;;;28.12;35.16
804;BME280;25687;49.976;8.240;2023-07-02T10:54:58;99649.63;;;27.90;33.84
804;BME280;25687;49.976;8.240;2023-07-02T10:57:23;99638.56;;;27.28;35.53
804;BME280;25687;49.976;8.240;2023-07-02T10:59:48;99641.94;;;25.99;35.94
804;BME280;25687;49.976;8.240;2023-07-02T11:02:15;99644.66;;;26.13;37.50
804;BME280;25687;49.976;8.240;2023-07-02T11:04:40;99641.25;;;26.25;36.56
804;BME280;25687;49.976;8.240;2023-07-02T11:07:06;99647.88;;;24.73;39.73
804;BME280;25687;49.976;8.240;2023-07-02T11:09:31;99643.41;;;24.52;42.63
804;BME280;25687;49.976;8.240;2023-07-02T11:11:59;99651.84;;;24.84;42.34
804;BME280;25687;49.976;8.240;2023-07-02T11:14:32;99636.84;;;25.06;41.61
804;BME280;25687;49.976;8.240;2023-07-02T11:16:59;99643.28;;;25.25;40.71
804;BME280;25687;49.976;8.240;2023-07-02T11:19:25;99637.03;;;25.33;40.27
804;BME280;25687;49.976;8.240;2023-07-02T11:21:52;99637.28;;;25.66;39.17
804;BME280;25687;49.976;8.240;2023-07-02T11:24:35;99651.19;;;25.88;40.38
804;BME280;25687;49.976;8.240;2023-07-02T11:27:03;99642.22;;;25.76;39.58
804;BME280;25687;49.976;8.240;2023-07-02T11:29:29;99644.13;;;25.32;40.06
804;BME280;25687;49.976;8.240;2023-07-02T11:32:04;99641.16;;;25.13;40.93
804;BME280;25687;49.976;8.240;2023-07-02T11:34:29;99649.56;;;24.80;43.50
804;BME280;25687;49.976;8.240;2023-07-02T11:36:55;99647.47;;;25.19;41.63
804;BME280;25687;49.976;8.240;2023-07-02T11:39:20;99645.78;;;25.61;41.80
804;BME280;25687;49.976;8.240;2023-07-02T11:41:47;99647.28;;;25.77;40.25
804;BME280;25687;49.976;8.240;2023-07-02T11:44:13;99650.41;;;25.31;40.83
804;BME280;25687;49.976;8.240;2023-07-02T11:46:38;99649.72;;;25.22;40.32
804;BME280;25687;49.976;8.240;2023-07-02T11:49:04;99656.00;;;25.21;41.62
804;BME280;25687;49.976;8.240;2023-07-02T11:51:30;99648.56;;;25.32;41.68
804;BME280;25687;49.976;8.240;2023-07-02T11:53:56;99655.03;;;25.29;40.79
804;BME280;25687;49.976;8.240;2023-07-02T11:56:21;99661.50;;;25.48;39.00
804;BME280;25687;49.976;8.240;2023-07-02T11:58:47;99640.56;;;25.68;39.18
804;BME280;25687;49.976;8.240;2023-07-02T12:01:12;99644.47;;;25.79;38.83
804;BME280;25687;49.976;8.240;2023-07-02T12:03:37;99643.94;;;25.55;37.28
804;BME280;25687;49.976;8.240;2023-07-02T12:06:02;99644.06;;;25.82;38.75
804;BME280;25687;49.976;8.240;2023-07-02T12:08:28;99643.16;;;25.61;37.45
804;BME280;25687;49.976;8.240;2023-07-02T12:10:53;99645.31;;;25.86;36.72
804;BME280;25687;49.976;8.240;2023-07-02T12:13:18;99652.41;;;25.86;35.85
804;BME280;25687;49.976;8.240;2023-07-02T12:15:49;99652.25;;;26.36;35.29
804;BME280;25687;49.976;8.240;2023-07-02T12:18:16;99653.91;;;26.64;35.91
804;BME280;25687;49.976;8.240;2023-07-02T12:20:41;99645.28;;;26.21;35.98
804;BME280;25687;49.976;8.240;2023-07-02T12:23:07;99636.91;;;25.69;36.93
804;BME280;25687;49.976;8.240;2023-07-02T12:25:32;99657.03;;;25.49;37.74
804;BME280;25687;49.976;8.240;2023-07-02T12:27:57;99653.56;;;24.98;38.22
804;BME280;25687;49.976;8.240;2023-07-02T12:30:23;99655.78;;;24.73;40.49
804;BME280;25687;49.976;8.240;2023-07-02T12:32:48;99643.03;;;24.98;40.36
804;BME280;25687;49.976;8.240;2023-07-02T12:35:13;99649.75;;;24.57;41.49
804;BME280;25687;49.976;8.240;2023-07-02T12:37:46;99645.78;;;25.11;40.28
804;BME280;25687;49.976;8.240;2023-07-02T12:40:12;99641.88;;;25.29;40.38
804;BME280;25687;49.976;8.240;2023-07-02T12:42:37;99647.97;;;25.29;38.65
804;BME280;25687;49.976;8.240;2023-07-02T12:45:04;99644.56;;;25.07;37.73
804;BME280;25687;49.976;8.240;2023-07-02T12:47:30;99643.63;;;24.93;38.31
804;BME280;25687;49.976;8.240;2023-07-02T12:49:55;99644.44;;;24.94;38.56
804;BME280;25687;49.976;8.240;2023-07-02T12:52:20;99650.38;;;25.03;38.45
804;BME280;25687;49.976;8.240;2023-07-02T12:54:46;99654.19;;;25.00;38.20
804;BME280;25687;49.976;8.240;2023-07-02T12:57:11;99657.78;;;24.71;38.95
804;BME280;25687;49.976;8.240;2023-07-02T12:59:36;99656.47;;;24.81;39.63
804;BME280;25687;49.976;8.240;2023-07-02T13:02:01;99660.28;;;24.79;39.64
804;BME280;25687;49.976;8.240;2023-07-02T13:04:27;99654.72;;;24.89;39.60
804;BME280;25687;49.976;8.240;2023-07-02T13:06:52;99658.88;;;24.61;40.40
804;BME280;25687;49.976;8.240;2023-07-02T13:09:18;99656.38;;;25.40;40.95
804;BME280;25687;49.976;8.240;2023-07-02T13:11:43;99653.25;;;26.00;37.65
804;BME280;25687;49.976;8.240;2023-07-02T13:14:08;99654.47;;;26.39;37.21